Time;durP1;ratioP1;P1;durP2;ratioP2;P2;SDS_P1;SDS_P2;PMS_P1;PMS_P2;Temp;Humidity;BMP_temperature;BMP_pressure;BME280_temperature;BME280_humidity;BME280_pressure;Samples;Min_cycle;Max_cycle;Signal;HPM_P1;HPM_P2
2023/10/13 00:02:10;;;;;;;;;;;;;;;22.44;50.44;101228.03;7391353;19;1634;-40
2023/10/13 00:04:38;;;;;;;;;;;;;;;22.48;50.36;101241.19;7391924;19;1864;-40
2023/10/13 00:07:09;;;;;;;;;;;;;;;22.43;50.27;101229.00;7392180;19;1362;-39
2023/10/13 00:09:40;;;;;;;;;;;;;;;22.43;50.44;101231.72;7393886;19;1411;-40
2023/10/13 00:12:13;;;;;;;;;;;;;;;22.40;50.38;101240.09;7392321;19;1484;-40
2023/10/13 00:14:45;;;;;;;;;;;;;;;22.43;50.57;101217.41;7390979;19;1400;-39
2023/10/13 00:17:19;;;;;;;;;;;;;;;22.44;50.60;101237.94;7393679;19;1589;-40
2023/10/13 00:19:51;;;;;;;;;;;;;;;22.42;50.39;101232.72;7392994;19;1745;-40
2023/10/13 00:22:22;;;;;;;;;;;;;;;22.40;50.48;101233.84;7393608;19;1626;-40
2023/10/13 00:25:03;;;;;;;;;;;;;;;22.43;50.48;101237.09;7393604;19;1860;-39
2023/10/13 00:27:33;;;;;;;;;;;;;;;22.40;50.48;101231.16;7392235;19;1536;-40
2023/10/13 00:32:43;;;;;;;;;;;;;;;22.38;50.33;101231.31;7393340;19;1328;-39
2023/10/13 00:35:14;;;;;;;;;;;;;;;22.39;50.58;101245.63;7391373;19;1612;-40
2023/10/13 00:37:44;;;;;;;;;;;;;;;22.38;50.62;101252.00;7390866;19;1958;-39
2023/10/13 00:40:41;;;;;;;;;;;;;;;22.41;50.43;101231.00;7391536;19;1586;-39
2023/10/13 00:45:54;;;;;;;;;;;;;;;22.41;50.46;101244.47;7374618;19;2130;-39
2023/10/13 00:48:25;;;;;;;;;;;;;;;22.40;50.48;101236.53;7390846;19;1566;-39
2023/10/13 00:50:51;;;;;;;;;;;;;;;22.33;50.52;101244.38;7390347;19;1480;-40
2023/10/13 00:53:21;;;;;;;;;;;;;;;22.39;50.39;101243.78;7390854;19;1570;-40
2023/10/13 00:55:49;;;;;;;;;;;;;;;22.39;50.43;101243.78;7391094;19;1519;-39
2023/10/13 00:58:22;;;;;;;;;;;;;;;22.40;50.42;101228.44;7392203;19;1506;-40
2023/10/13 01:00:48;;;;;;;;;;;;;;;22.37;50.58;101239.53;7390461;19;1412;-39
2023/10/13 01:03:24;;;;;;;;;;;;;;;22.38;50.60;101235.84;7392768;19;1380;-39
2023/10/13 01:05:54;;;;;;;;;;;;;;;22.42;50.24;101235.41;7389645;19;1844;-40
2023/10/13 01:08:34;;;;;;;;;;;;;;;22.39;50.27;101246.47;7390847;19;1464;-39
2023/10/13 01:11:06;;;;;;;;;;;;;;;22.34;50.29;101229.03;7390574;19;1523;-39
2023/10/13 01:13:36;;;;;;;;;;;;;;;22.35;50.65;101238.84;7392332;19;1502;-40
2023/10/13 01:16:07;;;;;;;;;;;;;;;22.35;50.32;101230.75;7390232;19;1888;-40
2023/10/13 01:18:32;;;;;;;;;;;;;;;;;;7390871;19;1732;-40
2023/10/13 01:21:02;;;;;;;;;;;;;;;22.39;50.36;101216.00;7389061;19;1472;-40
2023/10/13 01:23:37;;;;;;;;;;;;;;;22.34;50.48;101237.13;7389625;19;1804;-40
2023/10/13 01:26:06;;;;;;;;;;;;;;;22.38;50.69;101246.63;7389290;19;1847;-40
2023/10/13 01:28:44;;;;;;;;;;;;;;;22.39;50.48;101226.78;7400000;19;1567;-40
2023/10/13 01:31:17;;;;;;;;;;;;;;;22.36;50.50;101227.06;7396766;19;1527;-40
2023/10/13 01:33:45;;;;;;;;;;;;;;;22.32;50.49;101236.41;7398327;19;1500;-40
2023/10/13 01:36:12;;;;;;;;;;;;;;;22.31;50.54;101230.19;7395890;19;2028;-40
2023/10/13 01:38:43;;;;;;;;;;;;;;;22.32;50.62;101239.13;7399674;19;1734;-40
2023/10/13 01:41:08;;;;;;;;;;;;;;;22.32;50.71;101229.22;7397210;19;1582;-40
2023/10/13 01:43:37;;;;;;;;;;;;;;;22.32;50.59;101239.13;7398935;19;1703;-40
2023/10/13 01:46:03;;;;;;;;;;;;;;;22.34;50.77;101239.81;7381739;19;1843;-40
2023/10/13 01:48:32;;;;;;;;;;;;;;;22.32;50.58;101231.03;7397752;19;1824;-40
2023/10/13 01:51:00;;;;;;;;;;;;;;;22.31;50.72;101235.56;7396931;19;1579;-45
2023/10/13 01:53:28;;;;;;;;;;;;;;;22.33;50.67;101222.81;7398082;19;1491;-40
2023/10/13 01:55:57;;;;;;;;;;;;;;;22.35;50.83;101214.59;7399288;19;1591;-40
2023/10/13 01:58:28;;;;;;;;;;;;;;;22.32;50.60;101214.88;7400182;19;1511;-40
2023/10/13 02:00:56;;;;;;;;;;;;;;;22.34;50.72;101226.34;7396893;19;1813;-40
2023/10/13 02:03:27;;;;;;;;;;;;;;;22.31;50.63;101215.88;7397505;19;1487;-40
2023/10/13 02:05:57;;;;;;;;;;;;;;;22.30;50.61;101224.94;7396883;19;1858;-40
2023/10/13 02:08:26;;;;;;;;;;;;;;;22.32;50.72;101217.56;7397747;19;1553;-40
2023/10/13 02:10:52;;;;;;;;;;;;;;;22.36;50.56;101225.22;7397445;19;1573;-40
2023/10/13 02:13:24;;;;;;;;;;;;;;;22.33;50.72;101254.31;7398550;19;1491;-40
2023/10/13 02:15:56;;;;;;;;;;;;;;;22.33;50.57;101212.03;7397694;19;1500;-40
2023/10/13 02:18:26;;;;;;;;;;;;;;;22.30;50.72;101222.25;7396393;19;1581;-40
2023/10/13 02:20:56;;;;;;;;;;;;;;;22.29;50.78;101225.97;7396788;19;1484;-40
2023/10/13 02:23:24;;;;;;;;;;;;;;;22.30;50.67;101209.63;7397469;19;1201;-41
2023/10/13 02:26:00;;;;;;;;;;;;;;;22.31;50.59;101215.88;7393925;19;1844;-44
2023/10/13 02:28:30;;;;;;;;;;;;;;;22.28;50.76;101221.53;7397177;19;1417;-40
2023/10/13 02:30:59;;;;;;;;;;;;;;;22.28;50.87;101226.94;7394376;19;1777;-41
2023/10/13 02:33:29;;;;;;;;;;;;;;;22.32;50.46;101222.94;7396516;19;1706;-41
2023/10/13 02:35:58;;;;;;;;;;;;;;;22.30;50.73;101233.03;7395623;19;1462;-40
2023/10/13 02:38:34;;;;;;;;;;;;;;;22.28;50.72;101224.25;7394662;19;1667;-40
2023/10/13 02:41:05;;;;;;;;;;;;;;;22.33;50.59;101235.44;7395161;19;1463;-40
2023/10/13 02:43:34;;;;;;;;;;;;;;;22.27;50.67;101234.19;7396776;19;1477;-40
2023/10/13 02:46:02;;;;;;;;;;;;;;;22.28;50.67;101235.84;7378272;19;1873;-40
2023/10/13 02:48:31;;;;;;;;;;;;;;;22.28;50.71;101241.25;7395724;19;1746;-40
2023/10/13 02:51:06;;;;;;;;;;;;;;;22.27;50.55;101241.41;7394426;19;1508;-40
2023/10/13 02:53:35;;;;;;;;;;;;;;;22.24;50.73;101223.69;7396410;19;1467;-40
2023/10/13 02:56:05;;;;;;;;;;;;;;;22.22;50.82;101252.56;7395668;19;1497;-40
2023/10/13 02:58:43;;;;;;;;;;;;;;;22.21;50.62;101240.97;7395375;19;1457;-41
2023/10/13 03:01:16;;;;;;;;;;;;;;;22.23;50.80;101246.22;7394362;19;1560;-40
2023/10/13 03:03:51;;;;;;;;;;;;;;;22.27;50.56;101238.72;7394566;19;1474;-40
2023/10/13 03:06:21;;;;;;;;;;;;;;;22.28;50.69;101243.09;7395133;19;1865;-40
2023/10/13 03:08:49;;;;;;;;;;;;;;;22.26;50.58;101237.00;7396597;19;1698;-40
2023/10/13 03:11:21;;;;;;;;;;;;;;;22.26;50.54;101237.84;7395457;19;1564;-41
2023/10/13 03:13:53;;;;;;;;;;;;;;;22.26;50.51;101231.63;7395537;19;1691;-40
2023/10/13 03:16:19;;;;;;;;;;;;;;;22.30;50.39;101241.94;7393562;19;1855;-41
2023/10/13 03:18:55;;;;;;;;;;;;;;;22.32;50.52;101244.50;7393066;19;1472;-40
2023/10/13 03:21:29;;;;;;;;;;;;;;;22.32;50.27;101237.28;7395447;19;1510;-41
2023/10/13 03:24:04;;;;;;;;;;;;;;;22.31;50.50;101237.44;7394700;19;1404;-40
2023/10/13 03:26:34;;;;;;;;;;;;;;;22.31;50.48;101223.97;7394092;19;1846;-40
2023/10/13 03:29:13;;;;;;;;;;;;;;;22.32;50.34;101242.69;7395155;19;1254;-40
2023/10/13 03:31:45;;;;;;;;;;;;;;;22.39;50.40;101237.53;7390444;19;1440;-43
2023/10/13 03:34:15;;;;;;;;;;;;;;;22.43;50.48;101245.19;7393421;19;1481;-41
2023/10/13 03:36:59;;;;;;;;;;;;;;;22.44;50.14;101241.50;7392900;19;1440;-40
2023/10/13 03:39:30;;;;;;;;;;;;;;;22.49;50.38;101232.13;7390810;19;1492;-41
2023/10/13 03:41:59;;;;;;;;;;;;;;;22.51;50.33;101249.84;7389368;19;1886;-40
2023/10/13 03:44:32;;;;;;;;;;;;;;;22.50;50.52;101232.00;7392314;19;1220;-40
2023/10/13 03:47:17;;;;;;;;;;;;;;;22.49;50.74;101218.66;7373771;19;1879;-40
2023/10/13 03:49:51;;;;;;;;;;;;;;;22.27;50.96;101238.72;7389264;19;1499;-40
2023/10/13 03:52:22;;;;;;;;;;;;;;;22.45;50.33;101234.25;7390220;19;1435;-40
2023/10/13 03:54:51;;;;;;;;;;;;;;;22.55;50.47;101237.78;6864239;19;9999644;-41
2023/10/13 03:57:21;;;;;;;;;;;;;;;22.51;50.36;101238.22;7384450;19;1785;-41
2023/10/13 03:59:53;;;;;;;;;;;;;;;22.47;50.38;101234.97;7386136;19;1746;-41
2023/10/13 04:02:21;;;;;;;;;;;;;;;22.39;50.44;101232.16;7390164;19;1985;-41
2023/10/13 04:04:55;;;;;;;;;;;;;;;22.33;50.65;101232.75;7391596;19;1839;-41
2023/10/13 04:15:36;;;;;;;;;;;;;;;22.32;50.53;101247.19;7395336;19;1472;-41
2023/10/13 04:18:13;;;;;;;;;;;;;;;22.26;50.86;101247.78;7384371;19;1635;-41
2023/10/13 04:20:46;;;;;;;;;;;;;;;22.23;50.61;101249.75;7388115;19;1503;-41
2023/10/13 04:23:25;;;;;;;;;;;;;;;22.25;50.75;101241.56;7388228;19;1884;-41
2023/10/13 04:28:37;;;;;;;;;;;;;;;22.17;50.91;101255.72;7385715;19;1602;-41
2023/10/13 04:31:12;;;;;;;;;;;;;;;22.22;50.62;101255.28;7388033;19;1524;-41
2023/10/13 04:33:48;;;;;;;;;;;;;;;22.23;50.65;101259.69;7388766;19;1548;-41
2023/10/13 04:36:16;;;;;;;;;;;;;;;22.21;50.62;101257.13;7387316;19;1619;-41
2023/10/13 04:38:59;;;;;;;;;;;;;;;22.22;50.79;101275.00;7388351;19;1745;-41
2023/10/13 04:41:31;;;;;;;;;;;;;;;22.20;50.77;101266.22;7390239;19;1797;-41
2023/10/13 04:44:04;;;;;;;;;;;;;;;22.26;50.73;101263.94;7390056;19;1645;-41
2023/10/13 04:46:39;;;;;;;;;;;;;;;22.24;50.65;101267.66;7377954;19;1848;-41
2023/10/13 04:49:27;;;;;;;;;;;;;;;22.28;50.61;101261.97;7392211;19;1710;-40
2023/10/13 04:51:58;;;;;;;;;;;;;;;22.28;50.61;101257.41;7393747;19;1644;-41
2023/10/13 04:54:33;;;;;;;;;;;;;;;22.34;50.59;101267.63;7392708;19;1896;-41
2023/10/13 05:00:52;;;;;;;;;;;;;;;22.34;50.68;101280.25;7393691;19;1769;-41
2023/10/13 05:03:01;;;;;;;;;;;;;;;22.34;50.23;101277.53;7392141;19;1626;-41
2023/10/13 05:49:09;;;;;;;;;;;;;;;23.05;49.26;101303.16;7391725;19;1474;-41
2023/10/13 05:51:43;;;;;;;;;;;;;;;23.09;48.85;101308.09;7388176;19;1704;-41
2023/10/13 06:29:19;;;;;;;;;;;;;;;22.20;43.48;101320.09;7394380;19;1126;-41
2023/10/13 06:31:49;;;;;;;;;;;;;;;22.21;43.90;101329.00;7393165;19;1853;-41
2023/10/13 06:34:20;;;;;;;;;;;;;;;22.23;44.26;101314.41;7389530;19;1376;-41
2023/10/13 06:36:48;;;;;;;;;;;;;;;22.26;44.24;101328.59;7390449;19;1384;-45
2023/10/13 06:42:00;;;;;;;;;;;;;;;22.29;44.53;101331.88;7388734;19;1559;-45
2023/10/13 06:44:32;;;;;;;;;;;;;;;22.24;44.71;101326.94;7392459;19;1559;-46
2023/10/13 06:47:03;;;;;;;;;;;;;;;22.24;44.83;101320.66;7391986;19;1850;-46
2023/10/13 06:49:38;;;;;;;;;;;;;;;22.26;45.00;101331.31;7393607;19;1904;-45
2023/10/13 06:52:09;;;;;;;;;;;;;;;22.36;45.15;101329.44;7392317;19;1846;-46
2023/10/13 06:54:38;;;;;;;;;;;;;;;;;;7392940;19;1713;-47
2023/10/13 06:57:14;;;;;;;;;;;;;;;22.33;45.01;101327.91;7392811;19;1464;-46
2023/10/13 06:59:42;;;;;;;;;;;;;;;22.26;45.39;101309.75;7395141;19;1605;-46
2023/10/13 07:02:21;;;;;;;;;;;;;;;22.32;46.28;101326.22;7394283;19;1504;-46
2023/10/13 07:04:51;;;;;;;;;;;;;;;22.53;45.84;101326.00;7394830;19;1487;-46
2023/10/13 07:07:22;;;;;;;;;;;;;;;22.59;46.21;101324.59;7392503;19;1841;-46
2023/10/13 07:09:55;;;;;;;;;;;;;;;22.60;46.33;101324.44;7395168;19;1613;-46
2023/10/13 07:12:26;;;;;;;;;;;;;;;22.58;46.58;101334.53;7395215;19;1450;-46
2023/10/13 07:14:59;;;;;;;;;;;;;;;22.55;46.76;101324.03;7392571;19;1719;-46
2023/10/13 07:17:32;;;;;;;;;;;;;;;22.54;46.93;101330.44;7392773;19;1538;-46
2023/10/13 07:20:14;;;;;;;;;;;;;;;22.56;47.09;101332.94;7394779;19;1792;-46
2023/10/13 07:22:54;;;;;;;;;;;;;;;22.53;47.17;101342.19;7392351;19;1893;-46
2023/10/13 07:25:24;;;;;;;;;;;;;;;22.60;46.96;101346.00;7394633;19;1468;-46
2023/10/13 07:27:57;;;;;;;;;;;;;;;22.63;47.17;101342.16;7392415;19;1941;-45
2023/10/13 07:30:26;;;;;;;;;;;;;;;22.62;47.19;101330.53;7395930;19;1750;-46
2023/10/13 07:32:57;;;;;;;;;;;;;;;22.63;47.22;101334.91;7393359;19;1395;-46
2023/10/13 07:35:26;;;;;;;;;;;;;;;22.79;47.62;101325.38;7393835;19;1599;-46
2023/10/13 07:37:55;;;;;;;;;;;;;;;22.86;47.73;101331.91;7393331;19;1383;-44
2023/10/13 07:40:39;;;;;;;;;;;;;;;22.81;47.50;101329.63;7392722;19;1507;-44
2023/10/13 07:43:13;;;;;;;;;;;;;;;23.16;46.91;101338.06;7392528;19;1338;-45
2023/10/13 07:45:42;;;;;;;;;;;;;;;23.17;47.06;101334.34;7361736;19;1608;-51
2023/10/13 07:48:19;;;;;;;;;;;;;;;22.87;47.38;101325.50;7391074;19;1830;-50
2023/10/13 07:50:48;;;;;;;;;;;;;;;22.78;47.81;101320.97;7393983;19;1472;-51
2023/10/13 07:53:22;;;;;;;;;;;;;;;22.84;48.09;101355.47;7392220;19;1456;-51
2023/10/13 07:55:54;;;;;;;;;;;;;;;22.94;47.80;101339.22;7392683;19;1568;-51
2023/10/13 07:58:27;;;;;;;;;;;;;;;22.91;47.71;101334.97;7387235;19;1487;-51
2023/10/13 08:01:16;;;;;;;;;;;;;;;23.05;47.47;101336.38;7393077;19;1473;-50
2023/10/13 08:03:47;;;;;;;;;;;;;;;22.99;48.12;101332.38;7393966;19;1249;-50
2023/10/13 08:06:26;;;;;;;;;;;;;;;23.05;47.82;101332.84;7394444;19;1860;-50
2023/10/13 08:08:55;;;;;;;;;;;;;;;23.15;47.50;101344.44;7394949;19;1877;-50
2023/10/13 08:11:34;;;;;;;;;;;;;;;22.98;48.00;101335.25;7390333;19;1453;-50
2023/10/13 08:14:22;;;;;;;;;;;;;;;22.89;48.32;101336.97;7392632;19;1721;-50
2023/10/13 08:18:33;;;;;;;;;;;;;;;22.88;48.65;101345.22;7346277;19;13958;-51
2023/10/13 08:21:03;;;;;;;;;;;;;;;22.92;48.89;101342.09;7422073;19;1876;-51
2023/10/13 08:23:57;;;;;;;;;;;;;;;23.05;49.15;101336.38;7427714;19;2095;-51
2023/10/13 08:32:13;;;;;;;;;;;;;;;23.11;49.29;101338.47;7430238;19;982;-52
2023/10/13 08:37:28;;;;;;;;;;;;;;;23.25;49.69;101337.13;7423582;19;1845;-50
2023/10/13 08:42:55;;;;;;;;;;;;;;;23.22;50.17;101349.09;7421941;19;1593;-50
2023/10/13 08:45:53;;;;;;;;;;;;;;;23.15;50.82;101341.75;7410723;19;1602;-50
2023/10/13 08:48:15;;;;;;;;;;;;;;;23.31;50.12;101350.03;7427057;19;1769;-51
2023/10/13 08:50:52;;;;;;;;;;;;;;;23.13;50.49;101343.75;7421382;19;1608;-51
2023/10/13 08:53:31;;;;;;;;;;;;;;;23.03;50.69;101344.63;7425987;19;1405;-51
2023/10/13 08:56:10;;;;;;;;;;;;;;;23.13;50.35;101349.13;7425106;19;1494;-50
2023/10/13 09:01:45;;;;;;;;;;;;;;;23.27;50.24;101340.53;7422109;19;1903;-51
2023/10/13 09:04:21;;;;;;;;;;;;;;;23.29;50.62;101327.75;7426209;19;1462;-52
2023/10/13 09:09:42;;;;;;;;;;;;;;;23.18;50.46;101322.56;7426374;19;2618;-41
2023/10/13 09:12:11;;;;;;;;;;;;;;;23.26;50.48;101317.25;7425171;19;1587;-41
2023/10/13 09:14:43;;;;;;;;;;;;;;;23.09;50.70;101320.75;7422126;19;1628;-41
2023/10/13 09:17:11;;;;;;;;;;;;;;;23.19;50.70;101327.78;7420569;19;1861;-42
2023/10/13 09:19:48;;;;;;;;;;;;;;;23.14;50.74;101330.09;7424842;19;1456;-41
2023/10/13 09:22:27;;;;;;;;;;;;;;;23.22;51.14;101340.16;7422003;19;1607;-41
2023/10/13 09:25:00;;;;;;;;;;;;;;;23.13;51.30;101317.59;7423254;19;1394;-42
2023/10/13 09:27:27;;;;;;;;;;;;;;;23.22;50.82;101323.97;7422835;19;1541;-42
2023/10/13 09:30:04;;;;;;;;;;;;;;;23.17;50.90;101313.59;7395496;19;1578;-41
2023/10/13 09:32:33;;;;;;;;;;;;;;;23.23;50.56;101320.25;7397543;19;1467;-41
2023/10/13 09:35:05;;;;;;;;;;;;;;;23.27;50.54;101323.50;7394941;19;1759;-41
2023/10/13 09:37:37;;;;;;;;;;;;;;;23.25;50.72;101310.16;7392891;19;1861;-41
2023/10/13 09:40:24;;;;;;;;;;;;;;;23.42;49.92;101319.31;7395791;19;1805;-41
2023/10/13 09:42:50;;;;;;;;;;;;;;;23.26;50.39;101317.25;7395752;19;1794;-41
2023/10/13 09:45:27;;;;;;;;;;;;;;;23.18;49.59;101327.97;7378803;19;1661;-41
2023/10/13 09:47:53;;;;;;;;;;;;;;;23.06;49.80;101316.50;7394782;19;1480;-41
2023/10/13 09:50:26;;;;;;;;;;;;;;;23.16;49.63;101320.00;7391626;19;1713;-41
2023/10/13 09:52:56;;;;;;;;;;;;;;;23.03;49.93;101323.03;7391309;19;1647;-42
2023/10/13 09:55:29;;;;;;;;;;;;;;;22.97;49.54;101325.44;7394971;19;1544;-42
2023/10/13 09:57:59;;;;;;;;;;;;;;;23.00;48.65;101315.22;7391778;19;1854;-41
2023/10/13 10:03:29;;;;;;;;;;;;;;;22.78;49.16;101316.44;7389713;19;1456;-42
2023/10/13 10:06:03;;;;;;;;;;;;;;;22.77;49.62;101311.19;7393267;19;1474;-42
2023/10/13 10:08:38;;;;;;;;;;;;;;;22.76;47.82;101325.66;7393204;19;1845;-41
2023/10/13 10:11:15;;;;;;;;;;;;;;;22.76;48.29;101320.25;7393227;19;1544;-41
2023/10/13 10:13:50;;;;;;;;;;;;;;;22.84;47.57;101329.34;7396416;19;1489;-41
2023/10/13 10:16:19;;;;;;;;;;;;;;;22.84;48.47;101310.47;7396157;19;1642;-42
2023/10/13 10:18:48;;;;;;;;;;;;;;;22.87;48.54;101316.56;7395523;19;1663;-41
2023/10/13 10:21:20;;;;;;;;;;;;;;;23.06;48.04;101310.25;7395484;19;1559;-41
2023/10/13 10:23:57;;;;;;;;;;;;;;;22.94;48.11;101318.53;7396829;19;1539;-41
2023/10/13 10:26:28;;;;;;;;;;;;;;;22.99;48.87;101320.75;7395197;19;1762;-43
2023/10/13 10:28:57;;;;;;;;;;;;;;;22.88;48.64;101329.91;7396027;19;1642;-41
2023/10/13 10:31:34;;;;;;;;;;;;;;;22.85;49.10;101314.00;7395896;19;1822;-41
2023/10/13 10:34:13;;;;;;;;;;;;;;;22.89;49.81;101331.59;7393361;19;1846;-41
2023/10/13 10:36:42;;;;;;;;;;;;;;;23.00;50.21;101319.78;7394972;19;1858;-41
2023/10/13 10:39:14;;;;;;;;;;;;;;;22.96;49.30;101319.22;7393427;19;1528;-41
2023/10/13 10:41:45;;;;;;;;;;;;;;;22.94;48.98;101302.34;7391846;19;1515;-41
2023/10/13 10:44:25;;;;;;;;;;;;;;;22.88;49.23;101311.03;7392473;19;1774;-41
2023/10/13 10:47:01;;;;;;;;;;;;;;;22.89;49.17;101306.47;7379447;19;1411;-41
2023/10/13 10:49:32;;;;;;;;;;;;;;;22.86;49.17;101307.63;7394860;19;1738;-42
2023/10/13 10:52:04;;;;;;;;;;;;;;;22.84;49.57;101306.94;7395882;19;1777;-42
2023/10/13 10:54:35;;;;;;;;;;;;;;;22.80;49.70;101313.59;7395153;19;1442;-42
2023/10/13 10:59:44;;;;;;;;;;;;;;;22.78;50.11;101288.59;7390519;19;1431;-42
2023/10/13 11:02:15;;;;;;;;;;;;;;;22.85;49.72;101300.53;7393003;19;1536;-42
2023/10/13 11:04:50;;;;;;;;;;;;;;;22.85;49.24;101292.44;7390407;19;1994;-42
2023/10/13 11:07:23;;;;;;;;;;;;;;;22.83;49.27;101289.03;7394448;19;1457;-42
2023/10/13 11:10:06;;;;;;;;;;;;;;;22.84;49.28;101290.75;7394785;19;1203;-42
2023/10/13 11:12:35;;;;;;;;;;;;;;;22.83;49.22;101283.63;7393213;19;1904;-42
2023/10/13 11:15:06;;;;;;;;;;;;;;;22.80;49.23;101292.00;7393157;19;1869;-42
2023/10/13 11:17:51;;;;;;;;;;;;;;;22.77;49.29;101282.38;7392910;19;1845;-42
2023/10/13 11:20:25;;;;;;;;;;;;;;;22.79;49.34;101293.03;7393080;19;1566;-43
2023/10/13 11:22:54;;;;;;;;;;;;;;;22.78;49.30;101285.91;7393154;19;1801;-42
2023/10/13 11:25:29;;;;;;;;;;;;;;;22.70;49.75;101291.19;7390559;19;2435;-43
2023/10/13 11:28:06;;;;;;;;;;;;;;;22.64;49.98;101289.94;7392313;19;1424;-42
2023/10/13 11:30:45;;;;;;;;;;;;;;;22.59;50.10;101292.25;7392803;19;1592;-42
2023/10/13 11:33:17;;;;;;;;;;;;;;;22.59;50.08;101282.31;7392103;19;1492;-42
2023/10/13 11:35:55;;;;;;;;;;;;;;;22.57;50.31;101284.28;7393294;19;1466;-42
2023/10/13 11:38:27;;;;;;;;;;;;;;;22.58;50.11;101269.84;7391428;19;1907;-42
2023/10/13 11:41:14;;;;;;;;;;;;;;;22.56;50.31;101281.75;7392431;19;1442;-42
2023/10/13 11:44:06;;;;;;;;;;;;;;;22.55;50.43;101275.50;7391654;19;1575;-42
2023/10/13 11:49:31;;;;;;;;;;;;;;;22.56;50.30;101271.81;7392054;19;1599;-42
2023/10/13 11:52:10;;;;;;;;;;;;;;;22.66;50.20;101279.00;7391583;19;1517;-42
2023/10/13 11:54:41;;;;;;;;;;;;;;;22.77;50.24;101276.16;7392685;19;1702;-42
2023/10/13 11:57:12;;;;;;;;;;;;;;;22.71;50.42;101271.34;7390711;19;1838;-42
2023/10/13 11:59:53;;;;;;;;;;;;;;;22.76;49.98;101277.13;7390085;19;1451;-42
2023/10/13 12:05:11;;;;;;;;;;;;;;;22.59;51.07;101252.66;7392767;19;1648;-42
2023/10/13 12:07:45;;;;;;;;;;;;;;;22.57;51.36;101256.50;7392236;19;1607;-42
2023/10/13 12:10:32;;;;;;;;;;;;;;;22.57;51.23;101265.44;7392829;19;1369;-42
2023/10/13 12:13:10;;;;;;;;;;;;;;;22.52;51.13;101246.16;7391833;19;1881;-42
2023/10/13 12:15:52;;;;;;;;;;;;;;;22.55;51.30;101259.34;7391101;19;1854;-42
2023/10/13 12:18:23;;;;;;;;;;;;;;;22.54;51.41;101246.88;7388794;19;1862;-42
2023/10/13 12:20:51;;;;;;;;;;;;;;;22.54;51.27;101256.78;7389734;19;1880;-42
2023/10/13 12:23:20;;;;;;;;;;;;;;;22.52;51.26;101248.88;7391778;19;1713;-42
2023/10/13 12:26:00;;;;;;;;;;;;;;;22.52;51.32;101258.78;7393517;19;1596;-42
2023/10/13 12:28:37;;;;;;;;;;;;;;;22.53;51.43;101245.16;7392317;19;1634;-42
2023/10/13 12:31:07;;;;;;;;;;;;;;;22.50;51.43;101240.06;7392600;19;1679;-42
2023/10/13 12:33:40;;;;;;;;;;;;;;;22.51;51.62;101235.53;7390056;19;2510;-42
2023/10/13 12:36:30;;;;;;;;;;;;;;;22.50;51.34;101240.06;7392114;19;1779;-42
2023/10/13 12:49:58;;;;;;;;;;;;;;;22.52;51.56;101269.56;7390694;19;1540;-42
2023/10/13 12:52:31;;;;;;;;;;;;;;;22.54;51.60;101272.94;7389962;19;1441;-42
2023/10/13 12:55:09;;;;;;;;;;;;;;;22.55;51.74;101270.13;7389612;19;1501;-42
2023/10/13 12:57:42;;;;;;;;;;;;;;;22.52;51.66;101253.38;7388892;19;1849;-42
2023/10/13 13:00:25;;;;;;;;;;;;;;;22.52;51.84;101246.16;7388432;19;1519;-42
2023/10/13 13:02:55;;;;;;;;;;;;;;;22.70;51.24;101250.75;7387661;19;1600;-42
2023/10/13 13:05:28;;;;;;;;;;;;;;;22.97;50.42;101253.47;7396057;19;1639;-42
2023/10/13 13:07:56;;;;;;;;;;;;;;;22.91;50.78;101255.94;7394319;19;1364;-42
2023/10/13 13:10:34;;;;;;;;;;;;;;;22.91;50.64;101254.06;7396669;19;1372;-42
2023/10/13 13:13:03;;;;;;;;;;;;;;;22.93;50.43;101254.78;7395333;19;1847;-42
2023/10/13 13:15:35;;;;;;;;;;;;;;;22.87;50.22;101258.06;7395143;19;1524;-42
2023/10/13 13:18:11;;;;;;;;;;;;;;;22.82;50.54;101255.84;7394589;19;1845;-42
2023/10/13 13:20:44;;;;;;;;;;;;;;;22.81;50.61;101243.34;7395737;19;1429;-43
2023/10/13 13:23:12;;;;;;;;;;;;;;;22.85;50.88;101268.16;7397123;19;1563;-43
2023/10/13 13:25:42;;;;;;;;;;;;;;;23.03;50.76;101252.91;7395552;19;1558;-42
2023/10/13 13:28:11;;;;;;;;;;;;;;;23.05;50.86;101247.38;7397390;19;1496;-42
2023/10/13 13:30:43;;;;;;;;;;;;;;;23.27;50.52;101259.59;7396236;19;1531;-45
2023/10/13 13:33:16;;;;;;;;;;;;;;;23.41;50.47;101253.66;7397489;19;1651;-43
2023/10/13 13:35:48;;;;;;;;;;;;;;;23.31;50.69;101236.69;7398640;19;1545;-42
2023/10/13 13:38:22;;;;;;;;;;;;;;;23.36;50.81;101241.66;7395927;19;2597;-42
2023/10/13 13:40:53;;;;;;;;;;;;;;;23.45;50.93;101231.78;7398004;19;1480;-43
2023/10/13 13:43:37;;;;;;;;;;;;;;;23.27;51.26;101258.75;7397276;19;1441;-43
2023/10/13 13:46:11;;;;;;;;;;;;;;;23.17;51.25;101237.22;7377793;19;1488;-43
2023/10/13 13:48:41;;;;;;;;;;;;;;;23.20;51.44;101232.38;7393918;19;1724;-43
2023/10/13 13:51:14;;;;;;;;;;;;;;;23.16;51.60;101244.47;7394281;19;1510;-46
2023/10/13 13:53:44;;;;;;;;;;;;;;;23.27;51.47;101240.69;7394793;19;1417;-42
2023/10/13 13:56:15;;;;;;;;;;;;;;;23.15;51.64;101241.91;7392260;19;1522;-43
2023/10/13 13:58:44;;;;;;;;;;;;;;;23.05;52.25;101241.13;7393537;19;1852;-42
2023/10/13 14:01:15;;;;;;;;;;;;;;;23.12;52.21;101231.41;7394179;19;1195;-42
2023/10/13 14:03:50;;;;;;;;;;;;;;;23.15;51.98;101239.22;7393643;19;1946;-42
2023/10/13 14:06:24;;;;;;;;;;;;;;;22.93;52.47;101257.47;7395179;19;1929;-42
2023/10/13 14:08:54;;;;;;;;;;;;;;;22.97;51.91;101244.53;7396426;19;1912;-43
2023/10/13 14:12:25;;;;;;;;;;;;;;;22.93;51.84;101237.75;7396615;19;1514;-43
2023/10/13 14:14:13;;;;;;;;;;;;;;;22.94;51.68;101258.31;7395776;19;1417;-42
2023/10/13 14:16:47;;;;;;;;;;;;;;;22.87;51.37;101236.50;7393744;19;1411;-43
2023/10/13 14:19:19;;;;;;;;;;;;;;;23.02;51.97;101245.81;7393716;19;1857;-42
2023/10/13 14:21:53;;;;;;;;;;;;;;;22.93;51.75;101229.66;7396692;19;1131;-42
2023/10/13 14:24:27;;;;;;;;;;;;;;;22.83;52.07;101245.88;7394361;19;1417;-43
2023/10/13 14:26:55;;;;;;;;;;;;;;;22.78;51.89;101253.56;7388826;19;1493;-43
2023/10/13 14:29:26;;;;;;;;;;;;;;;22.75;52.25;101243.94;7394292;19;1553;-42
2023/10/13 14:31:59;;;;;;;;;;;;;;;22.73;52.21;101256.72;7394801;19;1690;-43
2023/10/13 14:34:27;;;;;;;;;;;;;;;23.03;51.93;101242.09;7394900;19;1542;-42
2023/10/13 14:36:55;;;;;;;;;;;;;;;22.84;52.09;101248.44;7393131;19;1385;-42
2023/10/13 14:39:29;;;;;;;;;;;;;;;22.78;52.27;101242.78;7390102;19;1860;-43
2023/10/13 14:41:59;;;;;;;;;;;;;;;22.77;52.53;101246.47;7394330;19;1446;-43
2023/10/13 14:44:28;;;;;;;;;;;;;;;22.74;52.28;101266.50;7394554;19;1591;-42
2023/10/13 14:46:59;;;;;;;;;;;;;;;22.72;52.34;101263.13;7378833;19;1551;-42
2023/10/13 14:49:27;;;;;;;;;;;;;;;22.70;52.68;101246.25;7395176;19;1727;-42
2023/10/13 14:51:59;;;;;;;;;;;;;;;22.71;52.50;101247.09;7391839;19;1950;-43
2023/10/13 14:57:10;;;;;;;;;;;;;;;22.80;52.28;101256.94;7387146;19;2378;-43
2023/10/13 14:59:41;;;;;;;;;;;;;;;22.76;52.64;101245.66;7387969;19;1872;-43
2023/10/13 15:02:12;;;;;;;;;;;;;;;22.88;51.75;101238.22;7392458;19;1647;-42
2023/10/13 15:04:40;;;;;;;;;;;;;;;22.92;52.15;101245.00;7393574;19;1550;-42
2023/10/13 15:07:08;;;;;;;;;;;;;;;22.90;52.30;101249.69;7393011;19;1481;-42
2023/10/13 15:09:37;;;;;;;;;;;;;;;23.09;51.96;101235.28;7393241;19;1186;-42
2023/10/13 15:12:10;;;;;;;;;;;;;;;23.00;52.05;101236.16;7391233;19;1578;-42
2023/10/13 15:14:39;;;;;;;;;;;;;;;22.89;52.02;101256.06;7391631;19;1478;-42
2023/10/13 15:17:07;;;;;;;;;;;;;;;22.98;50.28;101249.78;7387870;19;1532;-42
2023/10/13 15:19:38;;;;;;;;;;;;;;;22.97;48.37;101258.03;7387359;19;1951;-42
2023/10/13 15:22:12;;;;;;;;;;;;;;;22.80;50.21;101273.13;7387903;19;2388;-42
2023/10/13 15:24:45;;;;;;;;;;;;;;;22.79;50.44;101276.84;7392133;19;1446;-42
2023/10/13 15:27:14;;;;;;;;;;;;;;;22.82;49.82;101265.78;7389583;19;1506;-42
2023/10/13 15:29:50;;;;;;;;;;;;;;;22.87;48.56;101268.00;7389013;19;1350;-42
2023/10/13 15:35:04;;;;;;;;;;;;;;;22.68;49.29;101268.94;7395427;19;1422;-43
2023/10/13 15:37:32;;;;;;;;;;;;;;;22.76;48.38;101260.94;7394300;19;1383;-42
2023/10/13 15:40:04;;;;;;;;;;;;;;;22.79;48.13;101268.75;7392296;19;1845;-43
2023/10/13 15:42:32;;;;;;;;;;;;;;;22.69;47.55;101259.88;7393654;19;1796;-42
2023/10/13 15:45:00;;;;;;;;;;;;;;;22.50;48.58;101258.94;7391539;19;1492;-43